Yuma Proving Ground, Arizona
Current Conditions -  °F | °C
As of 5:57 PM on Monday 24 Nov 2014 (Local Time) from KNYL Reporting Station
Scattered Clouds Scattered Clouds  
Wind Chill: 70°   Ceiling: Unl
Heat Index: 70°   Visibility: 10mi
Dew Point:   Wind: 9mph
Humidity: 9%   Direction: 330°NNW
Pressure: 30.22"   Gusts: NA
Location:  32.7338°N, 114.51°W
Report Text: KNYL 250057Z 33008KT 10SM FEW200 SCT250 21/M13 A3022 RMK AO2 SLP233 T02111128
Loading
Personal Weather Stations






























Interactive Weather Map New forecast layout! Learn more

10-Day Weather Forecast

Advertisements
Track Severe Weather on mobile